Time;durP1;ratioP1;P1;durP2;ratioP2;P2;SDS_P1;SDS_P2;PMS_P1;PMS_P2;Temp;Humidity;BMP_temperature;BMP_pressure;BME280_temperature;BME280_humidity;BME280_pressure;Samples;Min_cycle;Max_cycle;Signal;HPM_P1;HPM_P2
2022/08/19 00:01:52;;;;;;;11.05;9.77;;;15.60;99.90;;;;;;5051094;28;20154;-56
2022/08/19 00:04:23;;;;;;;12.77;11.27;;;15.60;99.90;;;;;;5050978;28;20658;-57
2022/08/19 00:06:51;;;;;;;10.52;8.88;;;15.60;99.90;;;;;;5053461;28;20051;-56
2022/08/19 00:09:19;;;;;;;11.25;9.25;;;15.60;99.90;;;;;;5052982;28;20102;-58
2022/08/19 00:11:46;;;;;;;14.27;10.63;;;15.60;99.90;;;;;;5052340;28;20495;-56
2022/08/19 00:14:15;;;;;;;13.20;11.23;;;15.60;99.90;;;;;;5052803;28;20076;-56
2022/08/19 00:16:45;;;;;;;10.45;9.20;;;15.60;99.90;;;;;;5052266;28;20054;-56
2022/08/19 00:19:12;;;;;;;11.52;10.32;;;15.70;99.90;;;;;;5054465;28;20626;-57
2022/08/19 00:21:39;;;;;;;13.65;12.10;;;15.70;99.90;;;;;;5056268;28;20097;-56
2022/08/19 00:24:11;;;;;;;19.25;13.98;;;15.70;99.90;;;;;;5056443;28;20790;-57
2022/08/19 00:26:39;;;;;;;12.40;11.13;;;15.70;99.90;;;;;;5056277;28;20044;-58
2022/08/19 00:29:08;;;;;;;15.82;13.50;;;15.70;99.90;;;;;;5055029;28;20036;-57
2022/08/19 00:31:35;;;;;;;17.98;15.93;;;15.70;99.90;;;;;;5055741;28;20508;-54
2022/08/19 00:34:02;;;;;;;15.13;13.52;;;15.70;99.90;;;;;;5054219;28;20158;-56
2022/08/19 00:36:29;;;;;;;14.50;12.18;;;15.70;99.90;;;;;;5056425;28;20075;-56
2022/08/19 00:38:56;;;;;;;13.60;11.80;;;15.70;99.90;;;;;;5056056;28;20098;-55
2022/08/19 00:41:24;;;;;;;;;;;15.70;99.90;;;;;;5055013;28;20052;-56
2022/08/19 00:43:58;;;;;;;21.27;15.05;;;15.70;99.90;;;;;;5055592;28;19924;-57
2022/08/19 00:46:25;;;;;;;16.13;13.88;;;15.70;99.90;;;;;;5056337;28;20094;-56
2022/08/19 00:48:52;;;;;;;18.48;14.57;;;15.70;99.90;;;;;;5042075;28;20650;-56
2022/08/19 00:51:19;;;;;;;21.67;13.68;;;15.70;99.90;;;;;;5035558;28;20045;-55
2022/08/19 00:53:45;;;;;;;13.15;11.50;;;15.70;99.90;;;;;;5035883;28;20123;-56
2022/08/19 00:56:12;;;;;;;;;;;15.70;99.90;;;;;;5036089;28;20045;-56
2022/08/19 00:58:39;;;;;;;13.60;12.07;;;15.70;99.90;;;;;;5036340;28;20400;-57
2022/08/19 01:01:07;;;;;;;18.75;15.35;;;15.70;99.90;;;;;;5035616;28;20037;-56
2022/08/19 01:03:34;;;;;;;14.73;11.43;;;15.70;99.90;;;;;;5035662;28;20534;-58
2022/08/19 01:06:21;;;;;;;16.73;13.93;;;15.70;99.90;;;;;;5035804;28;20079;-57
2022/08/19 01:08:48;;;;;;;18.65;13.90;;;15.70;99.90;;;;;;5036115;28;20123;-58
2022/08/19 01:11:16;;;;;;;16.45;10.93;;;15.70;99.90;;;;;;5049506;28;20080;-56
2022/08/19 01:13:44;;;;;;;13.38;11.95;;;15.70;99.90;;;;;;5055466;28;20688;-57
2022/08/19 01:16:19;;;;;;;14.88;12.13;;;15.70;99.90;;;;;;5055382;28;20098;-58
2022/08/19 01:18:46;;;;;;;14.15;12.63;;;15.70;99.90;;;;;;5055116;28;20198;-57
2022/08/19 01:21:26;;;;;;;15.68;13.55;;;15.70;99.90;;;;;;5055713;28;20102;-56
2022/08/19 01:23:53;;;;;;;16.98;14.95;;;15.70;99.90;;;;;;5055016;28;20405;-56
2022/08/19 01:26:22;;;;;;;14.70;12.73;;;15.70;99.90;;;;;;5055738;28;20049;-57
2022/08/19 01:28:52;;;;;;;16.13;13.02;;;15.70;99.90;;;;;;5054466;28;20141;-57
2022/08/19 01:31:23;;;;;;;18.40;13.43;;;15.70;99.90;;;;;;5055470;28;20067;-58
2022/08/19 01:33:55;;;;;;;18.38;13.68;;;15.70;99.90;;;;;;5054395;28;20064;-55
2022/08/19 01:36:36;;;;;;;14.35;12.85;;;15.70;99.90;;;;;;5055778;28;20045;-57
2022/08/19 01:39:06;;;;;;;13.75;12.13;;;15.80;99.90;;;;;;5055022;28;20051;-56
2022/08/19 01:41:34;;;;;;;17.23;13.32;;;15.80;99.90;;;;;;5054676;28;20105;-56
2022/08/19 01:44:03;;;;;;;14.70;12.00;;;15.80;99.90;;;;;;5055216;28;20471;-56
2022/08/19 01:46:47;;;;;;;13.93;12.48;;;15.80;99.90;;;;;;5054749;28;20090;-56
2022/08/19 01:49:16;;;;;;;14.93;13.02;;;15.80;99.90;;;;;;5044918;28;20551;-56
2022/08/19 01:51:43;;;;;;;12.48;11.18;;;15.80;99.90;;;;;;5033781;28;20048;-57
2022/08/19 01:54:12;;;;;;;13.13;11.38;;;15.80;99.90;;;;;;5034781;28;20049;-55
2022/08/19 01:56:51;;;;;;;16.65;13.23;;;15.80;99.90;;;;;;5033072;28;20044;-56
2022/08/19 01:59:21;;;;;;;17.02;14.60;;;15.80;99.90;;;;;;5033421;28;20106;-54
2022/08/19 02:01:48;;;;;;;14.90;13.30;;;15.80;99.90;;;;;;5034313;28;20052;-56
2022/08/19 02:04:15;;;;;;;12.85;10.98;;;15.80;99.90;;;;;;5034751;28;20047;-55
2022/08/19 02:06:42;;;;;;;15.73;12.88;;;15.80;99.90;;;;;;5035255;28;20607;-56
2022/08/19 02:09:09;;;;;;;;;;;15.90;99.90;;;;;;5034991;28;20049;-56
2022/08/19 02:11:37;;;;;;;13.75;12.32;;;15.90;99.90;;;;;;5051710;28;19924;-56
2022/08/19 02:14:06;;;;;;;14.95;11.95;;;15.90;99.90;;;;;;5053815;28;20040;-58
2022/08/19 02:16:34;;;;;;;12.93;11.48;;;15.80;99.90;;;;;;5054939;28;20047;-55
2022/08/19 02:19:02;;;;;;;14.35;12.15;;;15.80;99.90;;;;;;5053456;28;20055;-57
2022/08/19 02:21:30;;;;;;;15.15;12.20;;;15.90;99.90;;;;;;5053440;28;20048;-57
2022/08/19 02:23:57;;;;;;;13.43;11.23;;;15.90;99.90;;;;;;5053470;28;20129;-57
2022/08/19 02:26:26;;;;;;;15.90;13.82;;;15.90;99.90;;;;;;5054698;28;20122;-56
2022/08/19 02:28:54;;;;;;;22.95;15.60;;;15.90;99.90;;;;;;5054147;28;20040;-55
2022/08/19 02:31:23;;;;;;;18.45;15.13;;;15.90;99.90;;;;;;5053421;28;20048;-58
2022/08/19 02:33:52;;;;;;;17.40;13.88;;;15.90;99.90;;;;;;5053768;28;20119;-58
2022/08/19 02:36:23;;;;;;;16.00;12.73;;;15.90;99.90;;;;;;5053854;28;20060;-55
2022/08/19 02:38:51;;;;;;;15.52;12.02;;;15.80;99.90;;;;;;5052539;28;20071;-57
2022/08/19 02:41:30;;;;;;;22.98;15.70;;;15.80;99.90;;;;;;5052614;28;20037;-58
2022/08/19 02:44:00;;;;;;;20.95;14.77;;;15.80;99.90;;;;;;5054095;28;20036;-54
2022/08/19 02:46:49;;;;;;;17.30;15.38;;;15.80;99.90;;;;;;5053616;28;20037;-56
2022/08/19 02:49:19;;;;;;;15.70;12.70;;;15.80;99.90;;;;;;5052489;28;20674;-56
2022/08/19 02:51:46;;;;;;;15.93;13.50;;;15.70;99.90;;;;;;5032186;28;20048;-58
2022/08/19 02:54:14;;;;;;;16.08;13.27;;;15.70;99.90;;;;;;5033470;28;20542;-56
2022/08/19 02:56:42;;;;;;;18.13;13.60;;;15.70;99.90;;;;;;5034118;28;20049;-56
2022/08/19 02:59:11;;;;;;;14.88;11.32;;;15.70;99.90;;;;;;5033483;28;20060;-57
2022/08/19 03:01:40;;;;;;;16.88;12.32;;;15.70;99.90;;;;;;5046830;28;20052;-58
2022/08/19 03:04:09;;;;;;;16.08;13.95;;;15.70;99.90;;;;;;5034009;28;20195;-55
2022/08/19 03:06:38;;;;;;;18.38;12.27;;;15.70;99.90;;;;;;5034040;28;20036;-56
2022/08/19 03:09:05;;;;;;;17.85;13.77;;;15.70;99.90;;;;;;5034119;28;20071;-56
2022/08/19 03:11:32;;;;;;;;;;;15.70;99.90;;;;;;5051379;28;20089;-58
2022/08/19 03:13:59;;;;;;;18.10;14.73;;;15.70;99.90;;;;;;5052371;28;19925;-58
2022/08/19 03:16:30;;;;;;;14.15;12.55;;;15.70;99.90;;;;;;5052632;28;20403;-58
2022/08/19 03:19:00;;;;;;;19.40;14.13;;;15.70;99.90;;;;;;5054476;28;21057;-58
2022/08/19 03:21:30;;;;;;;16.60;13.38;;;15.70;99.90;;;;;;5054044;28;20716;-57
2022/08/19 03:24:03;;;;;;;20.98;15.10;;;15.70;99.90;;;;;;5054018;28;20549;-57
2022/08/19 03:26:30;;;;;;;20.13;16.75;;;15.60;99.90;;;;;;5051779;28;20052;-56
2022/08/19 03:29:02;;;;;;;15.75;13.30;;;15.60;99.90;;;;;;5053483;28;20036;-58
2022/08/19 03:31:32;;;;;;;16.60;13.50;;;15.60;99.90;;;;;;5052905;28;20049;-58
2022/08/19 03:34:27;;;;;;;17.10;13.38;;;15.60;99.90;;;;;;5052399;28;20056;-58
2022/08/19 03:36:56;;;;;;;13.60;12.23;;;15.60;99.90;;;;;;5052852;28;20048;-57
2022/08/19 03:39:25;;;;;;;19.83;16.42;;;15.70;99.90;;;;;;5051846;28;20752;-57
2022/08/19 03:41:53;;;;;;;14.68;12.50;;;15.60;99.90;;;;;;5051722;28;20045;-58
2022/08/19 03:44:42;;;;;;;14.68;12.73;;;15.70;99.90;;;;;;5052275;28;20059;-56
2022/08/19 03:47:09;;;;;;;25.50;18.52;;;15.60;99.90;;;;;;5054197;28;20059;-57
2022/08/19 03:49:36;;;;;;;18.58;15.40;;;15.70;99.90;;;;;;5053789;28;20047;-56
2022/08/19 03:52:07;;;;;;;18.63;15.90;;;15.60;99.90;;;;;;5038881;28;20063;-56
2022/08/19 03:54:34;;;;;;;18.50;15.30;;;15.60;99.90;;;;;;5033445;28;20040;-57
2022/08/19 03:57:02;;;;;;;25.38;19.13;;;15.60;99.90;;;;;;5034503;28;20197;-58
2022/08/19 03:59:32;;;;;;;24.23;18.65;;;15.60;99.90;;;;;;5032771;28;20234;-57
2022/08/19 04:02:02;;;;;;;20.27;17.02;;;15.60;99.90;;;;;;5034386;28;20037;-58
2022/08/19 04:04:29;;;;;;;26.80;20.73;;;15.60;99.90;;;;;;5034342;28;20496;-56
2022/08/19 04:06:58;;;;;;;25.63;18.73;;;15.60;99.90;;;;;;5034706;28;20049;-56
2022/08/19 04:09:25;;;;;;;21.00;15.57;;;15.50;99.90;;;;;;5034399;28;20048;-58
2022/08/19 04:11:55;;;;;;;19.00;14.30;;;15.60;99.90;;;;;;5053877;28;20063;-57
2022/08/19 04:14:26;;;;;;;26.23;20.98;;;15.50;99.90;;;;;;5054422;28;20055;-57
2022/08/19 04:16:53;;;;;;;22.30;16.15;;;15.60;99.90;;;;;;5053350;28;20060;-59
2022/08/19 04:19:20;;;;;;;22.67;17.25;;;15.60;99.90;;;;;;5054588;28;20713;-56
2022/08/19 04:21:51;;;;;;;19.40;15.95;;;15.60;99.90;;;;;;5052545;28;20037;-57
2022/08/19 04:24:19;;;;;;;22.52;15.82;;;15.60;99.90;;;;;;5053997;28;20049;-56
2022/08/19 04:26:46;;;;;;;18.05;14.80;;;15.60;99.90;;;;;;5054209;28;20051;-56
2022/08/19 04:29:22;;;;;;;22.30;17.40;;;15.60;99.90;;;;;;5054061;28;20040;-55
2022/08/19 04:31:49;;;;;;;19.48;15.98;;;15.60;99.90;;;;;;5052705;28;20803;-57
2022/08/19 04:34:22;;;;;;;19.63;15.60;;;15.60;99.90;;;;;;5052043;28;20041;-57
2022/08/19 04:36:50;;;;;;;23.05;18.30;;;15.70;99.90;;;;;;5053883;28;20041;-58
2022/08/19 04:39:20;;;;;;;20.02;15.70;;;15.70;99.90;;;;;;5051757;28;20117;-56
2022/08/19 04:44:34;;;;;;;22.20;17.40;;;15.70;99.90;;;;;;5053553;28;20423;-57
2022/08/19 04:47:06;;;;;;;17.52;14.95;;;15.70;99.90;;;;;;5051827;28;20049;-58
2022/08/19 04:49:37;;;;;;;20.95;17.77;;;15.80;99.90;;;;;;5053565;28;20063;-59
2022/08/19 04:52:04;;;;;;;21.10;17.08;;;15.80;99.90;;;;;;5045251;28;20084;-53
2022/08/19 04:54:31;;;;;;;17.25;13.85;;;15.80;99.90;;;;;;5031705;28;20068;-53
2022/08/19 04:57:09;;;;;;;19.45;14.93;;;15.80;99.90;;;;;;5032524;28;20430;-55
2022/08/19 04:59:38;;;;;;;21.95;17.40;;;15.80;99.90;;;;;;5031648;28;20503;-54
2022/08/19 05:02:08;;;;;;;18.85;15.82;;;15.80;99.90;;;;;;5032921;28;20210;-52
2022/08/19 05:04:38;;;;;;;31.08;25.23;;;15.80;99.90;;;;;;5034891;28;20588;-53
2022/08/19 05:07:07;;;;;;;30.08;22.27;;;15.80;99.90;;;;;;5037035;28;20041;-54
2022/08/19 05:09:34;;;;;;;22.67;19.40;;;15.80;99.90;;;;;;5038018;28;20048;-52
2022/08/19 05:12:21;;;;;;;39.33;26.57;;;15.80;99.90;;;;;;5055222;28;20186;-55
2022/08/19 05:14:56;;;;;;;39.63;28.30;;;15.80;99.90;;;;;;5056365;28;20076;-53
2022/08/19 05:17:23;;;;;;;27.15;21.67;;;15.80;99.90;;;;;;5057098;28;20053;-52
2022/08/19 05:22:44;;;;;;;34.22;25.10;;;15.80;99.90;;;;;;5056020;28;20131;-53
2022/08/19 05:25:14;;;;;;;36.97;26.25;;;15.80;99.90;;;;;;5055306;28;20040;-53
2022/08/19 05:27:42;;;;;;;32.85;25.83;;;15.80;99.90;;;;;;5057155;28;20117;-53
2022/08/19 05:30:10;;;;;;;35.40;26.58;;;15.80;99.90;;;;;;5055936;28;20571;-54
2022/08/19 05:32:38;;;;;;;42.58;31.85;;;15.90;99.90;;;;;;5056801;28;20048;-56
2022/08/19 05:35:06;;;;;;;45.22;33.08;;;15.90;99.90;;;;;;5056094;28;20044;-51
2022/08/19 05:37:33;;;;;;;39.70;31.13;;;15.90;99.90;;;;;;5056636;28;20068;-53
2022/08/19 05:39:59;;;;;;;;;;;15.90;99.90;;;;;;5055212;28;20106;-54
2022/08/19 05:42:26;;;;;;;39.08;29.92;;;15.90;99.90;;;;;;5055042;28;19956;-53
2022/08/19 05:44:53;;;;;;;40.90;27.23;;;15.90;99.90;;;;;;5056418;28;20422;-53
2022/08/19 05:47:21;;;;;;;37.42;27.00;;;15.90;99.90;;;;;;5056115;28;20048;-53
2022/08/19 05:49:49;;;;;;;42.75;29.67;;;15.90;99.90;;;;;;5056418;28;20151;-53
2022/08/19 05:52:16;;;;;;;42.92;29.55;;;16.00;99.90;;;;;;5054495;28;20036;-52
2022/08/19 05:54:47;;;;;;;35.13;25.83;;;16.00;99.90;;;;;;5035631;28;20060;-54
2022/08/19 05:57:18;;;;;;;41.90;29.30;;;16.00;99.90;;;;;;5034268;28;20049;-54
2022/08/19 05:59:51;;;;;;;44.92;29.80;;;16.00;99.90;;;;;;5035716;28;20139;-53
2022/08/19 06:02:32;;;;;;;43.58;27.42;;;16.00;99.90;;;;;;5035907;28;20037;-53
2022/08/19 06:04:59;;;;;;;41.72;28.77;;;16.00;99.90;;;;;;5036540;28;20839;-55
2022/08/19 06:07:27;;;;;;;40.53;28.50;;;16.00;99.90;;;;;;5034643;28;20474;-53
2022/08/19 06:09:54;;;;;;;40.60;28.73;;;16.00;99.90;;;;;;5038520;28;20663;-53
2022/08/19 06:12:33;;;;;;;44.45;29.90;;;16.00;99.90;;;;;;5056375;28;20119;-54
2022/08/19 06:15:04;;;;;;;42.88;29.77;;;16.00;99.90;;;;;;5054712;28;20153;-53
2022/08/19 06:17:31;;;;;;;41.28;28.73;;;16.10;99.90;;;;;;5055328;28;20724;-53
2022/08/19 06:19:58;;;;;;;44.03;30.40;;;16.00;99.90;;;;;;5055673;28;20481;-53
2022/08/19 06:22:26;;;;;;;42.53;27.83;;;16.10;99.90;;;;;;5054239;28;20094;-54
2022/08/19 06:24:54;;;;;;;48.58;32.70;;;16.10;99.90;;;;;;5054999;28;20469;-53
2022/08/19 06:27:22;;;;;;;47.00;31.13;;;16.10;99.90;;;;;;5054192;28;20052;-54
2022/08/19 06:29:49;;;;;;;51.80;33.95;;;16.10;99.90;;;;;;5054714;28;20044;-54
2022/08/19 06:32:18;;;;;;;50.33;33.45;;;16.10;99.90;;;;;;5036057;28;20095;-55
2022/08/19 06:34:45;;;;;;;46.45;30.05;;;16.10;99.90;;;;;;5034137;28;20044;-53
2022/08/19 06:37:13;;;;;;;43.50;29.98;;;16.10;99.90;;;;;;5035156;28;20568;-54
2022/08/19 06:39:41;;;;;;;45.05;30.98;;;16.00;99.90;;;;;;5035504;28;20052;-50
2022/08/19 06:42:11;;;;;;;36.85;26.90;;;16.10;99.90;;;;;;5034885;28;20049;-55
2022/08/19 06:44:41;;;;;;;37.92;24.25;;;16.00;99.90;;;;;;5035642;28;20041;-53
2022/08/19 06:47:14;;;;;;;41.85;25.02;;;16.00;99.90;;;;;;5035279;28;20443;-55
2022/08/19 06:49:59;;;;;;;34.58;23.27;;;16.00;99.90;;;;;;5034438;28;20135;-54
2022/08/19 06:52:35;;;;;;;33.90;22.95;;;16.00;99.90;;;;;;5033092;28;20394;-61
2022/08/19 06:55:04;;;;;;;30.17;20.67;;;16.00;99.90;;;;;;5033556;28;20114;-62
2022/08/19 06:57:33;;;;;;;33.95;23.77;;;16.00;99.90;;;;;;5048898;28;20064;-58
2022/08/19 07:00:01;;;;;;;35.05;25.40;;;16.00;99.90;;;;;;5036574;28;20749;-57
2022/08/19 07:02:28;;;;;;;36.42;23.00;;;16.00;99.90;;;;;;5055504;28;20048;-54
2022/08/19 07:04:57;;;;;;;26.65;19.38;;;16.00;99.90;;;;;;5054354;28;20525;-56
2022/08/19 07:07:25;;;;;;;22.67;16.42;;;16.00;99.90;;;;;;5053679;28;20857;-53
2022/08/19 07:09:53;;;;;;;21.42;16.90;;;16.00;99.90;;;;;;5053308;28;20043;-56
2022/08/19 07:12:31;;;;;;;24.17;16.25;;;15.90;99.90;;;;;;5054849;28;20044;-54
2022/08/19 07:14:58;;;;;;;17.80;13.70;;;16.00;99.90;;;;;;5053555;28;20465;-54
2022/08/19 07:17:26;;;;;;;14.82;12.63;;;16.00;99.90;;;;;;5053107;28;20052;-54
2022/08/19 07:19:54;;;;;;;16.27;12.25;;;16.00;99.90;;;;;;5054789;28;20052;-52
2022/08/19 07:22:24;;;;;;;18.77;13.98;;;16.00;99.90;;;;;;5054578;28;20884;-56
2022/08/19 07:24:52;;;;;;;19.98;14.13;;;16.00;99.90;;;;;;5053069;28;20188;-57
2022/08/19 07:27:19;;;;;;;18.60;14.10;;;16.00;99.90;;;;;;5054298;28;20143;-58
2022/08/19 07:29:53;;;;;;;16.52;11.95;;;16.00;99.90;;;;;;5054668;28;20040;-55
2022/08/19 07:32:26;;;;;;;18.13;11.68;;;16.00;99.90;;;;;;5054372;28;20120;-55
2022/08/19 07:34:54;;;;;;;14.30;11.35;;;16.00;99.90;;;;;;5054442;28;20147;-54
2022/08/19 07:37:23;;;;;;;13.30;9.40;;;16.00;99.90;;;;;;5054141;28;20067;-55
2022/08/19 07:39:55;;;;;;;14.95;10.18;;;16.00;99.90;;;;;;5054855;28;20196;-55
2022/08/19 07:42:22;;;;;;;18.67;12.73;;;16.00;99.90;;;;;;5054513;28;20739;-53
2022/08/19 07:44:49;;;;;;;17.70;12.32;;;16.00;99.90;;;;;;5053263;28;20051;-54
2022/08/19 07:47:17;;;;;;;16.67;11.93;;;16.00;99.90;;;;;;5054132;28;20051;-55
2022/08/19 07:50:08;;;;;;;15.35;12.07;;;16.00;99.90;;;;;;5054680;28;20790;-54
2022/08/19 07:52:38;;;;;;;17.50;13.25;;;16.00;99.90;;;;;;5053495;28;20715;-56
2022/08/19 07:55:08;;;;;;;18.17;13.52;;;16.00;99.90;;;;;;5043501;28;20052;-56
2022/08/19 07:57:55;;;;;;;22.08;15.45;;;16.00;99.90;;;;;;5050226;28;20407;-56
2022/08/19 08:00:22;;;;;;;24.10;17.30;;;16.00;99.90;;;;;;5035990;28;20040;-55
2022/08/19 08:02:51;;;;;;;21.42;16.10;;;16.00;99.90;;;;;;5052926;28;20164;-55
2022/08/19 08:11:12;;;;;;;19.10;14.25;;;16.00;99.90;;;;;;5032733;28;20059;-56
2022/08/19 08:13:41;;;;;;;23.77;16.58;;;16.00;99.90;;;;;;5053271;28;20044;-54
2022/08/19 08:16:09;;;;;;;24.35;17.98;;;16.00;99.90;;;;;;5052209;28;20045;-54
2022/08/19 08:18:43;;;;;;;32.05;21.35;;;16.00;99.90;;;;;;5054457;28;20073;-55
2022/08/19 08:21:19;;;;;;;28.65;21.00;;;16.00;99.90;;;;;;5053512;28;20140;-54
2022/08/19 08:23:46;;;;;;;38.42;25.92;;;16.00;99.90;;;;;;5053957;28;20049;-54
2022/08/19 08:26:15;;;;;;;37.45;26.48;;;16.00;99.90;;;;;;5052442;28;20048;-54
2022/08/19 08:28:42;;;;;;;36.17;26.42;;;16.00;99.90;;;;;;5053631;28;20509;-55
2022/08/19 08:31:14;;;;;;;37.88;28.90;;;16.00;99.90;;;;;;5053686;28;20037;-51
2022/08/19 08:33:42;;;;;;;42.58;29.17;;;15.90;99.90;;;;;;5053756;28;20049;-52
2022/08/19 08:36:09;;;;;;;41.25;29.02;;;15.90;99.90;;;;;;5053242;28;20056;-55
2022/08/19 08:38:40;;;;;;;40.20;28.17;;;15.90;99.90;;;;;;5035677;28;20613;-53
2022/08/19 08:41:27;;;;;;;34.03;24.38;;;15.90;99.90;;;;;;5056090;28;20119;-53
2022/08/19 08:43:56;;;;;;;43.77;30.53;;;15.90;99.90;;;;;;5057321;28;20131;-53
2022/08/19 08:46:48;;;;;;;38.97;28.63;;;15.90;99.90;;;;;;5055630;28;20044;-56
2022/08/19 08:49:41;;;;;;;30.02;23.40;;;15.90;99.90;;;;;;5055729;28;20123;-53
2022/08/19 08:52:35;;;;;;;39.55;25.67;;;15.90;99.90;;;;;;5039663;28;20137;-56
2022/08/19 08:55:09;;;;;;;41.45;27.35;;;15.90;99.90;;;;;;5056725;28;20421;-53
2022/08/19 08:57:51;;;;;;;47.00;30.50;;;15.80;99.90;;;;;;5036292;28;20426;-54
2022/08/19 09:00:26;;;;;;;47.78;33.63;;;15.90;99.90;;;;;;5057395;28;20485;-56
2022/08/19 09:02:55;;;;;;;57.85;36.65;;;15.80;99.90;;;;;;5056397;28;20052;-55
2022/08/19 09:05:26;;;;;;;50.53;32.38;;;15.80;99.90;;;;;;5055973;28;20040;-53
2022/08/19 09:08:36;;;;;;;47.28;31.20;;;15.80;99.90;;;;;;5055078;28;20048;-55
2022/08/19 09:11:08;;;;;;;45.53;30.92;;;15.80;99.90;;;;;;5054465;28;20036;-55
2022/08/19 09:13:36;;;;;;;50.63;32.00;;;15.80;99.90;;;;;;5054300;28;20690;-53
2022/08/19 09:16:12;;;;;;;43.03;28.65;;;15.80;99.90;;;;;;5056990;28;20794;-54
2022/08/19 09:18:44;;;;;;;36.67;26.05;;;15.80;99.90;;;;;;5053465;28;20113;-54
2022/08/19 09:21:11;;;;;;;28.70;20.25;;;15.80;99.90;;;;;;5056080;28;20087;-55
2022/08/19 09:23:38;;;;;;;34.00;19.73;;;15.80;99.90;;;;;;5055228;28;20492;-54
2022/08/19 09:26:13;;;;;;;23.70;17.00;;;15.80;99.90;;;;;;5056275;28;20036;-55
2022/08/19 09:28:46;;;;;;;;;;;15.80;99.90;;;;;;5056670;28;20040;-54
2022/08/19 09:31:19;;;;;;;22.30;15.73;;;15.80;99.90;;;;;;5056521;28;19930;-55
2022/08/19 09:33:47;;;;;;;28.08;18.58;;;15.80;99.90;;;;;;5055113;28;20532;-53
2022/08/19 09:36:20;;;;;;;26.70;19.15;;;15.80;99.90;;;;;;5056737;28;20132;-52
2022/08/19 09:38:56;;;;;;;27.90;19.15;;;15.80;99.90;;;;;;5055570;28;20453;-57
2022/08/19 09:41:24;;;;;;;28.55;19.98;;;15.80;99.90;;;;;;5050800;28;20503;-53
2022/08/19 09:43:56;;;;;;;35.40;24.27;;;15.80;99.90;;;;;;5036028;28;20136;-54
2022/08/19 09:46:25;;;;;;;43.38;28.77;;;15.80;99.90;;;;;;5043687;28;20565;-53
2022/08/19 09:48:54;;;;;;;41.97;28.65;;;15.80;99.90;;;;;;5055631;28;20083;-54
2022/08/19 09:51:25;;;;;;;35.38;25.58;;;15.80;99.90;;;;;;5056051;28;20041;-55
2022/08/19 09:53:53;;;;;;;52.33;31.02;;;15.80;99.90;;;;;;5055996;28;20167;-58
2022/08/19 09:56:22;;;;;;;37.97;26.85;;;15.80;99.90;;;;;;5054923;28;20446;-56
2022/08/19 09:58:50;;;;;;;52.35;32.97;;;15.80;99.90;;;;;;5054213;28;20044;-53
2022/08/19 10:01:23;;;;;;;46.42;30.88;;;15.80;99.90;;;;;;5055784;28;20040;-56
2022/08/19 10:03:53;;;;;;;50.92;31.45;;;15.80;99.90;;;;;;5037442;28;20503;-56
2022/08/19 10:06:22;;;;;;;44.17;30.30;;;15.80;99.90;;;;;;5056165;28;20708;-58
2022/08/19 10:09:10;;;;;;;50.55;33.53;;;15.80;99.90;;;;;;5053992;28;20044;-56
2022/08/19 10:11:41;;;;;;;51.38;32.05;;;15.80;99.90;;;;;;5055427;28;20892;-57
2022/08/19 10:14:22;;;;;;;50.85;33.03;;;15.80;99.90;;;;;;5055276;28;20059;-55
2022/08/19 10:16:50;;;;;;;47.47;30.80;;;15.80;99.90;;;;;;5055077;28;20052;-57
2022/08/19 10:19:21;;;;;;;45.95;30.40;;;15.80;99.90;;;;;;5052828;28;20056;-57
2022/08/19 10:21:53;;;;;;;51.13;32.05;;;15.70;99.90;;;;;;5053394;28;20044;-57
2022/08/19 10:24:27;;;;;;;43.97;28.17;;;15.70;99.90;;;;;;5053348;28;20115;-57
2022/08/19 10:26:54;;;;;;;43.75;27.17;;;15.70;99.90;;;;;;5055517;28;20049;-56
2022/08/19 10:29:27;;;;;;;44.90;28.05;;;15.70;99.90;;;;;;5055449;28;20037;-54
2022/08/19 10:32:01;;;;;;;42.45;26.98;;;15.70;99.90;;;;;;5052889;28;20106;-53
2022/08/19 10:34:30;;;;;;;35.45;24.40;;;15.70;99.90;;;;;;5054006;28;20588;-53
2022/08/19 10:36:59;;;;;;;37.25;21.98;;;15.60;99.90;;;;;;5053842;28;20577;-51
2022/08/19 10:39:29;;;;;;;40.25;24.83;;;15.60;99.90;;;;;;5055760;28;20045;-54
2022/08/19 10:41:57;;;;;;;31.98;20.45;;;15.60;99.90;;;;;;5053645;28;20885;-54
2022/08/19 10:44:25;;;;;;;39.92;26.50;;;15.60;99.90;;;;;;5053084;28;20102;-53
2022/08/19 10:46:59;;;;;;;50.92;30.50;;;15.60;99.90;;;;;;5053979;28;20713;-56
2022/08/19 10:49:26;;;;;;;40.90;25.77;;;15.70;99.90;;;;;;5053379;28;20094;-54
2022/08/19 10:57:34;;;;;;;34.28;24.08;;;15.70;99.90;;;;;;5050423;28;20094;-56
2022/08/19 11:00:23;;;;;;;30.48;20.80;;;15.70;99.90;;;;;;5051847;28;20044;-55
2022/08/19 11:02:51;;;;;;;34.33;22.85;;;15.70;99.90;;;;;;5052347;28;20072;-54
2022/08/19 11:05:18;;;;;;;39.63;26.48;;;15.70;99.90;;;;;;5052122;28;20159;-49
2022/08/19 11:07:45;;;;;;;39.08;27.33;;;15.70;99.90;;;;;;5054846;28;20454;-53
2022/08/19 11:10:14;;;;;;;36.90;26.55;;;15.70;99.90;;;;;;5053702;28;20511;-53
2022/08/19 11:12:47;;;;;;;44.60;29.95;;;15.70;99.90;;;;;;5052475;28;20122;-55
2022/08/19 11:15:14;;;;;;;42.20;29.75;;;15.70;99.90;;;;;;5053740;28;20151;-55
2022/08/19 11:17:43;;;;;;;44.53;29.80;;;15.70;99.90;;;;;;5054148;28;20048;-54
2022/08/19 11:20:14;;;;;;;49.53;30.70;;;15.70;99.90;;;;;;5052771;28;20315;-55
2022/08/19 11:22:42;;;;;;;43.42;28.92;;;15.70;99.90;;;;;;5052577;28;20060;-54
2022/08/19 11:25:10;;;;;;;46.25;27.13;;;15.70;99.90;;;;;;5053452;28;20052;-54
2022/08/19 11:27:42;;;;;;;43.90;22.10;;;15.70;99.90;;;;;;5052091;28;20048;-54
2022/08/19 11:30:11;;;;;;;31.40;23.38;;;15.70;99.90;;;;;;5053311;28;20037;-55
2022/08/19 11:32:40;;;;;;;33.83;23.80;;;15.70;99.90;;;;;;5052374;28;20514;-55
2022/08/19 11:35:14;;;;;;;39.28;27.38;;;15.70;99.90;;;;;;5053444;28;20052;-54
2022/08/19 11:37:41;;;;;;;49.83;33.78;;;15.60;99.90;;;;;;5054264;28;20102;-53
2022/08/19 11:40:08;;;;;;;;;;;15.60;99.90;;;;;;5052942;28;20036;-54
2022/08/19 11:45:21;;;;;;;41.83;28.45;;;15.60;99.90;;;;;;5051233;28;20070;-54
2022/08/19 11:47:48;;;;;;;44.10;29.10;;;15.60;99.90;;;;;;5053697;28;20749;-55
2022/08/19 11:50:16;;;;;;;39.88;27.85;;;15.60;99.90;;;;;;5053613;28;20113;-54
2022/08/19 11:52:44;;;;;;;39.45;26.15;;;15.60;99.90;;;;;;5052052;28;20044;-56
2022/08/19 11:55:13;;;;;;;43.60;29.23;;;15.60;99.90;;;;;;5051851;28;20056;-54
2022/08/19 11:57:43;;;;;;;47.33;32.85;;;15.60;99.90;;;;;;5051621;28;20101;-54
2022/08/19 12:00:14;;;;;;;50.25;31.98;;;15.60;99.90;;;;;;5049422;28;20039;-54
2022/08/19 12:02:42;;;;;;;53.90;31.95;;;15.60;99.90;;;;;;5052609;28;20052;-56
2022/08/19 12:05:09;;;;;;;45.15;29.38;;;15.50;99.90;;;;;;5052283;28;20655;-56
2022/08/19 12:07:40;;;;;;;49.20;30.98;;;15.50;99.90;;;;;;5051839;28;20045;-54
2022/08/19 12:10:08;;;;;;;44.13;31.27;;;15.60;99.90;;;;;;5052321;28;20037;-54
2022/08/19 12:12:40;;;;;;;52.28;32.67;;;15.50;99.90;;;;;;5052449;28;20044;-57
2022/08/19 12:15:07;;;;;;;49.78;31.23;;;15.50;99.90;;;;;;5053425;28;20041;-55
2022/08/19 12:17:34;;;;;;;48.88;31.90;;;15.50;99.90;;;;;;5056301;28;20052;-54
2022/08/19 12:20:01;;;;;;;57.50;34.30;;;15.50;99.90;;;;;;5057291;28;20111;-56
2022/08/19 12:22:28;;;;;;;54.53;34.60;;;15.40;99.90;;;;;;5056019;28;20502;-57
2022/08/19 12:24:55;;;;;;;53.08;34.30;;;15.50;99.90;;;;;;5055873;28;20689;-54
2022/08/19 12:27:22;;;;;;;62.65;37.88;;;15.50;99.90;;;;;;5056724;28;20044;-56
2022/08/19 12:30:10;;;;;;;56.42;36.97;;;15.50;99.90;;;;;;5056626;28;20067;-56
2022/08/19 12:32:38;;;;;;;71.45;40.45;;;15.50;99.90;;;;;;5056588;28;20047;-54
2022/08/19 12:35:06;;;;;;;65.90;39.15;;;15.50;99.90;;;;;;5056546;28;20055;-54
2022/08/19 12:37:33;;;;;;;68.60;42.05;;;15.50;99.90;;;;;;5054331;28;20048;-55
2022/08/19 12:40:00;;;;;;;69.53;40.83;;;15.50;99.90;;;;;;5057316;28;20076;-54
2022/08/19 12:42:28;;;;;;;70.90;44.25;;;15.50;99.90;;;;;;5055951;28;20086;-50
2022/08/19 12:44:55;;;;;;;67.43;42.78;;;15.50;99.90;;;;;;5055690;28;20044;-54
2022/08/19 12:47:22;;;;;;;75.45;46.13;;;15.50;99.90;;;;;;5055316;28;20045;-55
2022/08/19 12:49:48;;;;;;;;;;;15.50;99.90;;;;;;5056977;28;20045;-56
2022/08/19 12:52:26;;;;;;;73.97;43.38;;;15.50;99.90;;;;;;5055550;28;19924;-55
2022/08/19 12:54:55;;;;;;;67.63;43.35;;;15.50;99.90;;;;;;5056363;28;20045;-62
2022/08/19 12:57:24;;;;;;;79.28;47.05;;;15.50;99.90;;;;;;5055908;28;20044;-54
2022/08/19 13:00:13;;;;;;;79.63;47.65;;;15.50;99.90;;;;;;5048248;28;20558;-56
2022/08/19 13:02:43;;;;;;;85.55;48.20;;;15.50;99.90;;;;;;5054421;28;20131;-54
2022/08/19 13:05:13;;;;;;;76.40;47.58;;;15.60;99.90;;;;;;5055989;28;20048;-54
2022/08/19 13:07:40;;;;;;;79.22;48.72;;;15.60;99.90;;;;;;5055735;28;20041;-56